sensor_id;sensor_type;location;lat;lon;timestamp;P1;durP1;ratioP1;P2;durP2;ratioP2
15194;SDS011;7698;42.478;23.756;2022-09-27T00:02:11;8.48;;;7.90;;
15194;SDS011;7698;42.478;23.756;2022-09-27T00:04:37;8.45;;;7.72;;
15194;SDS011;7698;42.478;23.756;2022-09-27T00:07:04;9.40;;;8.70;;
15194;SDS011;7698;42.478;23.756;2022-09-27T00:09:33;8.48;;;7.78;;
15194;SDS011;7698;42.478;23.756;2022-09-27T00:12:00;8.27;;;7.57;;
15194;SDS011;7698;42.478;23.756;2022-09-27T00:14:27;8.00;;;7.45;;
15194;SDS011;7698;42.478;23.756;2022-09-27T00:16:53;15.20;;;13.88;;
15194;SDS011;7698;42.478;23.756;2022-09-27T00:19:20;15.85;;;14.65;;
15194;SDS011;7698;42.478;23.756;2022-09-27T00:21:48;16.55;;;15.35;;
15194;SDS011;7698;42.478;23.756;2022-09-27T00:24:15;16.67;;;15.35;;
15194;SDS011;7698;42.478;23.756;2022-09-27T00:26:44;17.20;;;15.98;;
15194;SDS011;7698;42.478;23.756;2022-09-27T00:29:12;14.73;;;13.52;;
15194;SDS011;7698;42.478;23.756;2022-09-27T00:31:38;14.82;;;13.73;;
15194;SDS011;7698;42.478;23.756;2022-09-27T00:34:06;15.07;;;13.88;;
15194;SDS011;7698;42.478;23.756;2022-09-27T00:36:32;14.82;;;13.82;;
15194;SDS011;7698;42.478;23.756;2022-09-27T00:38:59;14.38;;;13.32;;
15194;SDS011;7698;42.478;23.756;2022-09-27T00:41:27;13.93;;;12.82;;
15194;SDS011;7698;42.478;23.756;2022-09-27T00:43:56;12.60;;;11.70;;
15194;SDS011;7698;42.478;23.756;2022-09-27T00:46:25;11.65;;;10.75;;
15194;SDS011;7698;42.478;23.756;2022-09-27T00:48:58;11.05;;;10.25;;
15194;SDS011;7698;42.478;23.756;2022-09-27T00:51:25;12.23;;;11.23;;
15194;SDS011;7698;42.478;23.756;2022-09-27T00:53:52;11.90;;;11.05;;
15194;SDS011;7698;42.478;23.756;2022-09-27T00:56:21;11.48;;;10.50;;
15194;SDS011;7698;42.478;23.756;2022-09-27T00:58:51;11.40;;;10.60;;
15194;SDS011;7698;42.478;23.756;2022-09-27T01:01:22;11.30;;;10.50;;
15194;SDS011;7698;42.478;23.756;2022-09-27T01:03:50;10.32;;;9.48;;
15194;SDS011;7698;42.478;23.756;2022-09-27T01:06:18;11.77;;;10.77;;
15194;SDS011;7698;42.478;23.756;2022-09-27T01:08:46;10.60;;;9.80;;
15194;SDS011;7698;42.478;23.756;2022-09-27T01:11:13;10.65;;;9.73;;
15194;SDS011;7698;42.478;23.756;2022-09-27T01:13:45;11.38;;;10.52;;
15194;SDS011;7698;42.478;23.756;2022-09-27T01:16:17;12.25;;;11.15;;
15194;SDS011;7698;42.478;23.756;2022-09-27T01:18:50;10.98;;;10.18;;
15194;SDS011;7698;42.478;23.756;2022-09-27T01:21:23;11.57;;;10.77;;
15194;SDS011;7698;42.478;23.756;2022-09-27T01:24:05;10.35;;;9.55;;
15194;SDS011;7698;42.478;23.756;2022-09-27T01:26:46;11.25;;;10.45;;
15194;SDS011;7698;42.478;23.756;2022-09-27T01:29:14;10.88;;;10.13;;
15194;SDS011;7698;42.478;23.756;2022-09-27T01:31:47;11.30;;;10.50;;
15194;SDS011;7698;42.478;23.756;2022-09-27T01:34:17;10.35;;;9.65;;
15194;SDS011;7698;42.478;23.756;2022-09-27T01:36:48;10.13;;;9.45;;
15194;SDS011;7698;42.478;23.756;2022-09-27T01:39:23;10.63;;;9.82;;
15194;SDS011;7698;42.478;23.756;2022-09-27T01:41:55;9.93;;;9.13;;
15194;SDS011;7698;42.478;23.756;2022-09-27T01:44:26;10.13;;;9.43;;
15194;SDS011;7698;42.478;23.756;2022-09-27T01:46:55;10.40;;;9.60;;
15194;SDS011;7698;42.478;23.756;2022-09-27T01:49:25;9.80;;;9.00;;
15194;SDS011;7698;42.478;23.756;2022-09-27T01:51:54;9.20;;;8.60;;
15194;SDS011;7698;42.478;23.756;2022-09-27T01:54:22;9.95;;;9.15;;
15194;SDS011;7698;42.478;23.756;2022-09-27T01:56:50;8.48;;;7.88;;
15194;SDS011;7698;42.478;23.756;2022-09-27T01:59:19;10.70;;;9.80;;
15194;SDS011;7698;42.478;23.756;2022-09-27T02:01:50;9.50;;;8.70;;
15194;SDS011;7698;42.478;23.756;2022-09-27T02:04:20;9.45;;;8.68;;
15194;SDS011;7698;42.478;23.756;2022-09-27T02:06:47;9.43;;;8.63;;
15194;SDS011;7698;42.478;23.756;2022-09-27T02:09:17;9.35;;;8.65;;
15194;SDS011;7698;42.478;23.756;2022-09-27T02:11:46;10.02;;;9.13;;
15194;SDS011;7698;42.478;23.756;2022-09-27T02:14:15;9.65;;;8.95;;
15194;SDS011;7698;42.478;23.756;2022-09-27T02:16:45;10.25;;;9.48;;
15194;SDS011;7698;42.478;23.756;2022-09-27T02:19:15;9.43;;;8.73;;
15194;SDS011;7698;42.478;23.756;2022-09-27T02:21:47;8.63;;;7.93;;
15194;SDS011;7698;42.478;23.756;2022-09-27T02:24:18;9.38;;;8.68;;
15194;SDS011;7698;42.478;23.756;2022-09-27T02:26:47;10.30;;;9.45;;
15194;SDS011;7698;42.478;23.756;2022-09-27T02:29:17;11.80;;;10.80;;
15194;SDS011;7698;42.478;23.756;2022-09-27T02:31:46;11.95;;;10.93;;
15194;SDS011;7698;42.478;23.756;2022-09-27T02:34:14;12.98;;;11.98;;
15194;SDS011;7698;42.478;23.756;2022-09-27T02:36:41;12.65;;;11.75;;
15194;SDS011;7698;42.478;23.756;2022-09-27T02:39:09;10.60;;;9.80;;
15194;SDS011;7698;42.478;23.756;2022-09-27T02:41:36;11.10;;;10.30;;
15194;SDS011;7698;42.478;23.756;2022-09-27T02:44:03;10.65;;;9.80;;
15194;SDS011;7698;42.478;23.756;2022-09-27T02:49:15;11.00;;;10.10;;
15194;SDS011;7698;42.478;23.756;2022-09-27T02:51:46;11.15;;;10.15;;
15194;SDS011;7698;42.478;23.756;2022-09-27T02:54:20;14.23;;;13.02;;
15194;SDS011;7698;42.478;23.756;2022-09-27T02:56:53;15.63;;;14.43;;
15194;SDS011;7698;42.478;23.756;2022-09-27T02:59:28;16.92;;;15.32;;
15194;SDS011;7698;42.478;23.756;2022-09-27T03:02:00;19.25;;;17.25;;
15194;SDS011;7698;42.478;23.756;2022-09-27T03:04:31;18.13;;;16.63;;
15194;SDS011;7698;42.478;23.756;2022-09-27T03:06:59;20.20;;;18.50;;
15194;SDS011;7698;42.478;23.756;2022-09-27T03:09:29;19.10;;;17.60;;
15194;SDS011;7698;42.478;23.756;2022-09-27T03:12:05;20.42;;;18.83;;
15194;SDS011;7698;42.478;23.756;2022-09-27T03:14:31;18.48;;;16.88;;
15194;SDS011;7698;42.478;23.756;2022-09-27T03:16:58;19.88;;;18.27;;
15194;SDS011;7698;42.478;23.756;2022-09-27T03:19:24;19.55;;;17.85;;
15194;SDS011;7698;42.478;23.756;2022-09-27T03:21:51;19.58;;;17.98;;
15194;SDS011;7698;42.478;23.756;2022-09-27T03:24:17;20.50;;;18.77;;
15194;SDS011;7698;42.478;23.756;2022-09-27T03:26:45;18.50;;;16.95;;
15194;SDS011;7698;42.478;23.756;2022-09-27T03:29:12;18.30;;;16.70;;
15194;SDS011;7698;42.478;23.756;2022-09-27T03:31:39;17.17;;;15.77;;
15194;SDS011;7698;42.478;23.756;2022-09-27T03:34:06;19.20;;;17.38;;
15194;SDS011;7698;42.478;23.756;2022-09-27T03:36:32;17.25;;;15.95;;
15194;SDS011;7698;42.478;23.756;2022-09-27T03:38:59;18.92;;;17.38;;
15194;SDS011;7698;42.478;23.756;2022-09-27T03:41:25;18.50;;;17.00;;
15194;SDS011;7698;42.478;23.756;2022-09-27T03:43:53;18.55;;;16.85;;
15194;SDS011;7698;42.478;23.756;2022-09-27T03:46:21;18.10;;;16.67;;
15194;SDS011;7698;42.478;23.756;2022-09-27T03:48:48;18.67;;;17.08;;
15194;SDS011;7698;42.478;23.756;2022-09-27T03:51:15;16.95;;;15.60;;
15194;SDS011;7698;42.478;23.756;2022-09-27T03:53:41;18.17;;;16.67;;
15194;SDS011;7698;42.478;23.756;2022-09-27T03:56:08;17.15;;;15.55;;
15194;SDS011;7698;42.478;23.756;2022-09-27T03:58:34;19.58;;;17.98;;
15194;SDS011;7698;42.478;23.756;2022-09-27T04:01:02;19.67;;;18.08;;
15194;SDS011;7698;42.478;23.756;2022-09-27T04:03:29;20.10;;;18.40;;
15194;SDS011;7698;42.478;23.756;2022-09-27T04:05:56;20.58;;;18.90;;
15194;SDS011;7698;42.478;23.756;2022-09-27T04:08:24;18.45;;;17.05;;
15194;SDS011;7698;42.478;23.756;2022-09-27T04:10:51;18.08;;;16.80;;
15194;SDS011;7698;42.478;23.756;2022-09-27T04:13:17;18.67;;;17.02;;
15194;SDS011;7698;42.478;23.756;2022-09-27T04:15:44;17.55;;;16.10;;
15194;SDS011;7698;42.478;23.756;2022-09-27T04:18:12;15.75;;;14.40;;
15194;SDS011;7698;42.478;23.756;2022-09-27T04:20:38;15.93;;;14.52;;
15194;SDS011;7698;42.478;23.756;2022-09-27T04:23:05;15.15;;;13.65;;
15194;SDS011;7698;42.478;23.756;2022-09-27T04:25:32;17.25;;;15.95;;
15194;SDS011;7698;42.478;23.756;2022-09-27T04:27:58;25.40;;;23.42;;
15194;SDS011;7698;42.478;23.756;2022-09-27T04:30:26;22.25;;;20.65;;
15194;SDS011;7698;42.478;23.756;2022-09-27T04:32:53;19.83;;;17.98;;
15194;SDS011;7698;42.478;23.756;2022-09-27T04:35:21;17.95;;;16.55;;
15194;SDS011;7698;42.478;23.756;2022-09-27T04:38:05;17.70;;;16.17;;
15194;SDS011;7698;42.478;23.756;2022-09-27T04:40:32;18.35;;;16.80;;
15194;SDS011;7698;42.478;23.756;2022-09-27T04:42:59;19.83;;;18.08;;
15194;SDS011;7698;42.478;23.756;2022-09-27T04:45:26;18.50;;;16.98;;
15194;SDS011;7698;42.478;23.756;2022-09-27T04:47:52;19.00;;;17.40;;
15194;SDS011;7698;42.478;23.756;2022-09-27T04:50:20;17.55;;;16.13;;
15194;SDS011;7698;42.478;23.756;2022-09-27T04:52:48;18.98;;;17.48;;
15194;SDS011;7698;42.478;23.756;2022-09-27T04:55:15;17.38;;;15.80;;
15194;SDS011;7698;42.478;23.756;2022-09-27T04:57:41;18.52;;;17.02;;
15194;SDS011;7698;42.478;23.756;2022-09-27T05:00:08;19.70;;;18.00;;
15194;SDS011;7698;42.478;23.756;2022-09-27T05:02:35;19.13;;;17.67;;
15194;SDS011;7698;42.478;23.756;2022-09-27T05:05:02;19.65;;;17.90;;
15194;SDS011;7698;42.478;23.756;2022-09-27T05:07:32;19.25;;;17.50;;
15194;SDS011;7698;42.478;23.756;2022-09-27T05:09:59;17.88;;;16.40;;
15194;SDS011;7698;42.478;23.756;2022-09-27T05:12:25;19.08;;;17.40;;
15194;SDS011;7698;42.478;23.756;2022-09-27T05:14:52;18.55;;;17.05;;
15194;SDS011;7698;42.478;23.756;2022-09-27T05:17:19;18.90;;;17.35;;
15194;SDS011;7698;42.478;23.756;2022-09-27T05:19:46;19.42;;;17.95;;
15194;SDS011;7698;42.478;23.756;2022-09-27T05:22:13;16.92;;;15.63;;
15194;SDS011;7698;42.478;23.756;2022-09-27T05:24:41;18.17;;;16.67;;
15194;SDS011;7698;42.478;23.756;2022-09-27T05:27:07;19.80;;;18.20;;
15194;SDS011;7698;42.478;23.756;2022-09-27T05:29:35;22.00;;;20.40;;
15194;SDS011;7698;42.478;23.756;2022-09-27T05:32:01;19.63;;;18.23;;
15194;SDS011;7698;42.478;23.756;2022-09-27T05:34:28;22.00;;;20.38;;
15194;SDS011;7698;42.478;23.756;2022-09-27T05:36:56;21.05;;;19.30;;
15194;SDS011;7698;42.478;23.756;2022-09-27T05:39:23;20.40;;;18.67;;
15194;SDS011;7698;42.478;23.756;2022-09-27T05:41:51;17.73;;;16.35;;
15194;SDS011;7698;42.478;23.756;2022-09-27T05:44:19;16.98;;;15.77;;
15194;SDS011;7698;42.478;23.756;2022-09-27T05:46:45;17.55;;;16.15;;
15194;SDS011;7698;42.478;23.756;2022-09-27T05:49:12;16.85;;;15.63;;
15194;SDS011;7698;42.478;23.756;2022-09-27T05:51:38;17.92;;;16.42;;
15194;SDS011;7698;42.478;23.756;2022-09-27T05:54:05;16.38;;;15.27;;
15194;SDS011;7698;42.478;23.756;2022-09-27T05:56:32;17.35;;;16.15;;
15194;SDS011;7698;42.478;23.756;2022-09-27T05:58:59;17.15;;;15.95;;
15194;SDS011;7698;42.478;23.756;2022-09-27T06:01:26;15.77;;;14.57;;
15194;SDS011;7698;42.478;23.756;2022-09-27T06:03:53;15.93;;;14.68;;
15194;SDS011;7698;42.478;23.756;2022-09-27T06:06:19;14.30;;;13.18;;
15194;SDS011;7698;42.478;23.756;2022-09-27T06:08:47;13.32;;;12.23;;
15194;SDS011;7698;42.478;23.756;2022-09-27T06:11:13;13.65;;;12.65;;
15194;SDS011;7698;42.478;23.756;2022-09-27T06:13:40;12.73;;;11.50;;
15194;SDS011;7698;42.478;23.756;2022-09-27T06:16:08;12.88;;;11.85;;
15194;SDS011;7698;42.478;23.756;2022-09-27T06:18:35;12.13;;;11.13;;
15194;SDS011;7698;42.478;23.756;2022-09-27T06:21:03;11.10;;;10.18;;
15194;SDS011;7698;42.478;23.756;2022-09-27T06:23:29;11.80;;;10.80;;
15194;SDS011;7698;42.478;23.756;2022-09-27T06:25:59;9.13;;;8.43;;
15194;SDS011;7698;42.478;23.756;2022-09-27T06:28:26;9.18;;;8.52;;
15194;SDS011;7698;42.478;23.756;2022-09-27T06:30:52;9.07;;;8.38;;
15194;SDS011;7698;42.478;23.756;2022-09-27T06:33:20;8.75;;;8.07;;
15194;SDS011;7698;42.478;23.756;2022-09-27T06:35:47;9.43;;;8.55;;
15194;SDS011;7698;42.478;23.756;2022-09-27T06:38:14;8.52;;;7.93;;
15194;SDS011;7698;42.478;23.756;2022-09-27T06:40:42;8.43;;;7.82;;
15194;SDS011;7698;42.478;23.756;2022-09-27T06:43:09;8.98;;;8.23;;
15194;SDS011;7698;42.478;23.756;2022-09-27T06:45:37;9.18;;;8.48;;
15194;SDS011;7698;42.478;23.756;2022-09-27T06:48:04;9.82;;;9.02;;
15194;SDS011;7698;42.478;23.756;2022-09-27T06:50:33;8.75;;;8.15;;
15194;SDS011;7698;42.478;23.756;2022-09-27T06:53:00;7.97;;;7.30;;
15194;SDS011;7698;42.478;23.756;2022-09-27T06:55:27;7.00;;;6.50;;
15194;SDS011;7698;42.478;23.756;2022-09-27T06:57:54;7.53;;;7.03;;
15194;SDS011;7698;42.478;23.756;2022-09-27T07:00:38;7.40;;;6.70;;
15194;SDS011;7698;42.478;23.756;2022-09-27T07:03:07;6.88;;;6.47;;
15194;SDS011;7698;42.478;23.756;2022-09-27T07:05:37;6.78;;;6.28;;
15194;SDS011;7698;42.478;23.756;2022-09-27T07:08:03;7.38;;;6.80;;
15194;SDS011;7698;42.478;23.756;2022-09-27T07:10:32;6.70;;;6.20;;
15194;SDS011;7698;42.478;23.756;2022-09-27T07:13:02;7.38;;;6.78;;
15194;SDS011;7698;42.478;23.756;2022-09-27T07:15:29;6.95;;;6.35;;
15194;SDS011;7698;42.478;23.756;2022-09-27T07:17:56;6.88;;;6.32;;
15194;SDS011;7698;42.478;23.756;2022-09-27T07:20:23;7.70;;;7.00;;
15194;SDS011;7698;42.478;23.756;2022-09-27T07:22:51;6.55;;;5.95;;
15194;SDS011;7698;42.478;23.756;2022-09-27T07:25:18;6.18;;;5.78;;
15194;SDS011;7698;42.478;23.756;2022-09-27T07:27:44;6.80;;;6.28;;
15194;SDS011;7698;42.478;23.756;2022-09-27T07:30:11;6.18;;;5.78;;
15194;SDS011;7698;42.478;23.756;2022-09-27T07:32:38;5.65;;;5.18;;
15194;SDS011;7698;42.478;23.756;2022-09-27T07:35:06;5.88;;;5.35;;
15194;SDS011;7698;42.478;23.756;2022-09-27T07:37:33;5.63;;;5.15;;
15194;SDS011;7698;42.478;23.756;2022-09-27T07:40:02;7.28;;;6.63;;
15194;SDS011;7698;42.478;23.756;2022-09-27T07:42:30;5.32;;;4.82;;
15194;SDS011;7698;42.478;23.756;2022-09-27T07:44:57;6.07;;;5.68;;
15194;SDS011;7698;42.478;23.756;2022-09-27T07:47:24;6.18;;;5.68;;
15194;SDS011;7698;42.478;23.756;2022-09-27T07:49:51;6.47;;;5.97;;
15194;SDS011;7698;42.478;23.756;2022-09-27T07:52:18;6.13;;;5.57;;
15194;SDS011;7698;42.478;23.756;2022-09-27T07:54:45;8.10;;;7.40;;
15194;SDS011;7698;42.478;23.756;2022-09-27T07:57:13;7.90;;;7.40;;
15194;SDS011;7698;42.478;23.756;2022-09-27T07:59:40;13.20;;;11.35;;
15194;SDS011;7698;42.478;23.756;2022-09-27T08:02:07;9.07;;;8.27;;
15194;SDS011;7698;42.478;23.756;2022-09-27T08:04:35;9.88;;;8.98;;
15194;SDS011;7698;42.478;23.756;2022-09-27T08:07:02;8.23;;;7.55;;
15194;SDS011;7698;42.478;23.756;2022-09-27T08:09:29;7.55;;;6.95;;
15194;SDS011;7698;42.478;23.756;2022-09-27T08:11:55;7.95;;;7.38;;
15194;SDS011;7698;42.478;23.756;2022-09-27T08:14:24;9.25;;;8.50;;
15194;SDS011;7698;42.478;23.756;2022-09-27T08:16:51;8.65;;;7.95;;
15194;SDS011;7698;42.478;23.756;2022-09-27T08:19:17;8.07;;;7.57;;
15194;SDS011;7698;42.478;23.756;2022-09-27T08:21:44;8.85;;;8.25;;
15194;SDS011;7698;42.478;23.756;2022-09-27T08:24:11;9.30;;;8.60;;
15194;SDS011;7698;42.478;23.756;2022-09-27T08:26:38;10.60;;;9.70;;
15194;SDS011;7698;42.478;23.756;2022-09-27T08:29:05;10.13;;;9.23;;
15194;SDS011;7698;42.478;23.756;2022-09-27T08:31:33;9.43;;;8.73;;
15194;SDS011;7698;42.478;23.756;2022-09-27T08:33:59;9.93;;;8.90;;
15194;SDS011;7698;42.478;23.756;2022-09-27T08:36:26;8.45;;;7.78;;
15194;SDS011;7698;42.478;23.756;2022-09-27T08:38:52;9.00;;;8.40;;
15194;SDS011;7698;42.478;23.756;2022-09-27T08:41:25;8.70;;;8.02;;
15194;SDS011;7698;42.478;23.756;2022-09-27T08:44:01;6.88;;;6.05;;
15194;SDS011;7698;42.478;23.756;2022-09-27T08:46:34;7.55;;;6.65;;
15194;SDS011;7698;42.478;23.756;2022-09-27T08:49:04;7.90;;;7.30;;
15194;SDS011;7698;42.478;23.756;2022-09-27T08:51:32;7.25;;;6.65;;
15194;SDS011;7698;42.478;23.756;2022-09-27T08:54:01;6.55;;;6.05;;
15194;SDS011;7698;42.478;23.756;2022-09-27T08:56:29;6.47;;;5.97;;
15194;SDS011;7698;42.478;23.756;2022-09-27T08:58:57;6.30;;;5.90;;
15194;SDS011;7698;42.478;23.756;2022-09-27T09:01:26;6.25;;;5.70;;
15194;SDS011;7698;42.478;23.756;2022-09-27T09:03:54;6.68;;;5.85;;
15194;SDS011;7698;42.478;23.756;2022-09-27T09:06:23;6.90;;;6.50;;
15194;SDS011;7698;42.478;23.756;2022-09-27T09:08:53;6.53;;;6.00;;
15194;SDS011;7698;42.478;23.756;2022-09-27T09:11:26;5.82;;;5.43;;
15194;SDS011;7698;42.478;23.756;2022-09-27T09:16:59;6.75;;;6.25;;
15194;SDS011;7698;42.478;23.756;2022-09-27T09:19:33;7.43;;;6.72;;
15194;SDS011;7698;42.478;23.756;2022-09-27T09:22:07;6.57;;;6.07;;
15194;SDS011;7698;42.478;23.756;2022-09-27T09:24:42;6.57;;;6.18;;
15194;SDS011;7698;42.478;23.756;2022-09-27T09:27:13;7.25;;;6.57;;
15194;SDS011;7698;42.478;23.756;2022-09-27T09:29:56;6.72;;;6.22;;
15194;SDS011;7698;42.478;23.756;2022-09-27T09:32:29;6.63;;;6.20;;
15194;SDS011;7698;42.478;23.756;2022-09-27T09:35:00;6.95;;;6.45;;
15194;SDS011;7698;42.478;23.756;2022-09-27T09:37:32;4.82;;;4.43;;
15194;SDS011;7698;42.478;23.756;2022-09-27T09:40:02;5.00;;;4.60;;
15194;SDS011;7698;42.478;23.756;2022-09-27T09:42:31;5.15;;;4.65;;
15194;SDS011;7698;42.478;23.756;2022-09-27T09:45:00;6.07;;;5.57;;
15194;SDS011;7698;42.478;23.756;2022-09-27T09:47:29;5.53;;;5.10;;
15194;SDS011;7698;42.478;23.756;2022-09-27T09:50:03;5.85;;;5.38;;
15194;SDS011;7698;42.478;23.756;2022-09-27T09:52:34;5.97;;;5.38;;
15194;SDS011;7698;42.478;23.756;2022-09-27T09:55:05;6.20;;;5.70;;
15194;SDS011;7698;42.478;23.756;2022-09-27T09:57:34;5.43;;;5.00;;
15194;SDS011;7698;42.478;23.756;2022-09-27T10:00:04;4.93;;;4.63;;
15194;SDS011;7698;42.478;23.756;2022-09-27T10:02:33;5.47;;;4.97;;
15194;SDS011;7698;42.478;23.756;2022-09-27T10:05:00;4.50;;;4.20;;
15194;SDS011;7698;42.478;23.756;2022-09-27T10:07:28;4.60;;;4.30;;
15194;SDS011;7698;42.478;23.756;2022-09-27T10:09:58;4.85;;;4.47;;
15194;SDS011;7698;42.478;23.756;2022-09-27T10:12:25;3.92;;;3.67;;
15194;SDS011;7698;42.478;23.756;2022-09-27T10:14:53;4.72;;;4.28;;
15194;SDS011;7698;42.478;23.756;2022-09-27T10:17:22;4.53;;;4.22;;
15194;SDS011;7698;42.478;23.756;2022-09-27T10:19:49;4.72;;;4.35;;
15194;SDS011;7698;42.478;23.756;2022-09-27T10:22:21;4.55;;;4.25;;
15194;SDS011;7698;42.478;23.756;2022-09-27T10:24:54;4.30;;;4.00;;
15194;SDS011;7698;42.478;23.756;2022-09-27T10:27:21;5.22;;;4.85;;
15194;SDS011;7698;42.478;23.756;2022-09-27T10:29:54;4.80;;;4.40;;
15194;SDS011;7698;42.478;23.756;2022-09-27T10:32:22;4.90;;;4.60;;
15194;SDS011;7698;42.478;23.756;2022-09-27T10:34:51;4.65;;;4.35;;
15194;SDS011;7698;42.478;23.756;2022-09-27T10:37:19;4.65;;;4.35;;
15194;SDS011;7698;42.478;23.756;2022-09-27T10:39:46;4.30;;;3.90;;
15194;SDS011;7698;42.478;23.756;2022-09-27T10:42:22;5.25;;;4.75;;
15194;SDS011;7698;42.478;23.756;2022-09-27T10:44:49;4.55;;;4.15;;
15194;SDS011;7698;42.478;23.756;2022-09-27T10:47:16;4.75;;;4.35;;
15194;SDS011;7698;42.478;23.756;2022-09-27T10:49:47;4.10;;;3.80;;
15194;SDS011;7698;42.478;23.756;2022-09-27T10:52:17;3.78;;;3.58;;
15194;SDS011;7698;42.478;23.756;2022-09-27T10:54:51;3.92;;;3.60;;
15194;SDS011;7698;42.478;23.756;2022-09-27T10:57:18;4.53;;;3.88;;
15194;SDS011;7698;42.478;23.756;2022-09-27T10:59:50;3.95;;;3.65;;
15194;SDS011;7698;42.478;23.756;2022-09-27T11:02:18;4.10;;;3.38;;
15194;SDS011;7698;42.478;23.756;2022-09-27T11:05:00;3.45;;;3.13;;
15194;SDS011;7698;42.478;23.756;2022-09-27T11:07:28;3.20;;;2.95;;
15194;SDS011;7698;42.478;23.756;2022-09-27T11:09:55;3.03;;;2.83;;
15194;SDS011;7698;42.478;23.756;2022-09-27T11:12:27;2.53;;;2.33;;
15194;SDS011;7698;42.478;23.756;2022-09-27T11:14:57;2.60;;;2.40;;
15194;SDS011;7698;42.478;23.756;2022-09-27T11:17:25;3.15;;;2.95;;
15194;SDS011;7698;42.478;23.756;2022-09-27T11:19:55;3.50;;;2.80;;
15194;SDS011;7698;42.478;23.756;2022-09-27T11:25:14;2.72;;;2.53;;
15194;SDS011;7698;42.478;23.756;2022-09-27T11:27:45;4.05;;;2.53;;
15194;SDS011;7698;42.478;23.756;2022-09-27T11:30:15;2.97;;;2.40;;
15194;SDS011;7698;42.478;23.756;2022-09-27T11:32:46;2.65;;;2.45;;
15194;SDS011;7698;42.478;23.756;2022-09-27T11:35:29;2.50;;;2.30;;
15194;SDS011;7698;42.478;23.756;2022-09-27T11:38:01;2.38;;;2.17;;
15194;SDS011;7698;42.478;23.756;2022-09-27T11:40:32;2.58;;;2.25;;
15194;SDS011;7698;42.478;23.756;2022-09-27T11:43:13;2.47;;;2.38;;
15194;SDS011;7698;42.478;23.756;2022-09-27T11:45:47;2.75;;;2.55;;
15194;SDS011;7698;42.478;23.756;2022-09-27T11:48:23;3.67;;;2.55;;
15194;SDS011;7698;42.478;23.756;2022-09-27T11:51:04;2.60;;;2.40;;
15194;SDS011;7698;42.478;23.756;2022-09-27T11:53:35;3.05;;;2.85;;
15194;SDS011;7698;42.478;23.756;2022-09-27T11:56:06;3.20;;;3.00;;
15194;SDS011;7698;42.478;23.756;2022-09-27T11:58:48;2.72;;;2.50;;
15194;SDS011;7698;42.478;23.756;2022-09-27T12:01:22;3.22;;;3.03;;
15194;SDS011;7698;42.478;23.756;2022-09-27T12:06:38;4.30;;;3.90;;
15194;SDS011;7698;42.478;23.756;2022-09-27T12:09:11;4.05;;;2.92;;
15194;SDS011;7698;42.478;23.756;2022-09-27T12:11:40;3.67;;;3.38;;
15194;SDS011;7698;42.478;23.756;2022-09-27T12:14:10;3.42;;;3.13;;
15194;SDS011;7698;42.478;23.756;2022-09-27T12:16:40;3.38;;;3.10;;
15194;SDS011;7698;42.478;23.756;2022-09-27T12:19:09;3.65;;;3.03;;
15194;SDS011;7698;42.478;23.756;2022-09-27T12:21:40;4.20;;;3.90;;
15194;SDS011;7698;42.478;23.756;2022-09-27T12:24:08;4.57;;;4.00;;
15194;SDS011;7698;42.478;23.756;2022-09-27T12:26:40;3.67;;;3.38;;
15194;SDS011;7698;42.478;23.756;2022-09-27T12:29:09;3.70;;;3.40;;
15194;SDS011;7698;42.478;23.756;2022-09-27T12:31:41;3.58;;;3.28;;
15194;SDS011;7698;42.478;23.756;2022-09-27T12:34:10;4.40;;;3.97;;
15194;SDS011;7698;42.478;23.756;2022-09-27T12:36:40;3.65;;;3.35;;
15194;SDS011;7698;42.478;23.756;2022-09-27T12:39:10;3.78;;;3.53;;
15194;SDS011;7698;42.478;23.756;2022-09-27T12:41:40;3.08;;;2.88;;
15194;SDS011;7698;42.478;23.756;2022-09-27T12:44:09;4.07;;;3.80;;
15194;SDS011;7698;42.478;23.756;2022-09-27T12:46:39;3.95;;;3.63;;
15194;SDS011;7698;42.478;23.756;2022-09-27T12:49:11;3.50;;;3.30;;
15194;SDS011;7698;42.478;23.756;2022-09-27T12:51:40;4.03;;;3.72;;
15194;SDS011;7698;42.478;23.756;2022-09-27T12:54:21;4.18;;;3.80;;
15194;SDS011;7698;42.478;23.756;2022-09-27T12:56:55;4.43;;;3.58;;
15194;SDS011;7698;42.478;23.756;2022-09-27T12:59:27;3.70;;;3.40;;
15194;SDS011;7698;42.478;23.756;2022-09-27T13:02:02;3.10;;;2.90;;
15194;SDS011;7698;42.478;23.756;2022-09-27T13:04:42;2.78;;;2.53;;
15194;SDS011;7698;42.478;23.756;2022-09-27T13:07:17;3.05;;;2.85;;
15194;SDS011;7698;42.478;23.756;2022-09-27T13:09:58;2.72;;;2.45;;
15194;SDS011;7698;42.478;23.756;2022-09-27T13:12:29;2.75;;;2.55;;
15194;SDS011;7698;42.478;23.756;2022-09-27T13:14:59;3.10;;;2.42;;
15194;SDS011;7698;42.478;23.756;2022-09-27T13:22:57;2.00;;;1.90;;
15194;SDS011;7698;42.478;23.756;2022-09-27T13:30:52;4.38;;;3.38;;
15194;SDS011;7698;42.478;23.756;2022-09-27T13:36:23;2.50;;;2.28;;
15194;SDS011;7698;42.478;23.756;2022-09-27T13:39:02;2.42;;;2.20;;
15194;SDS011;7698;42.478;23.756;2022-09-27T13:41:32;3.67;;;2.30;;
15194;SDS011;7698;42.478;23.756;2022-09-27T13:44:02;3.05;;;2.60;;
15194;SDS011;7698;42.478;23.756;2022-09-27T13:46:33;3.05;;;2.80;;
15194;SDS011;7698;42.478;23.756;2022-09-27T13:49:02;2.33;;;2.03;;
15194;SDS011;7698;42.478;23.756;2022-09-27T13:51:33;4.13;;;2.40;;
15194;SDS011;7698;42.478;23.756;2022-09-27T13:54:03;2.65;;;2.45;;
15194;SDS011;7698;42.478;23.756;2022-09-27T13:56:49;3.25;;;2.80;;
15194;SDS011;7698;42.478;23.756;2022-09-27T13:59:17;2.78;;;2.58;;
15194;SDS011;7698;42.478;23.756;2022-09-27T14:01:46;2.97;;;2.78;;
15194;SDS011;7698;42.478;23.756;2022-09-27T14:04:16;2.22;;;2.13;;
15194;SDS011;7698;42.478;23.756;2022-09-27T14:06:44;2.85;;;2.50;;
15194;SDS011;7698;42.478;23.756;2022-09-27T14:09:16;2.45;;;2.30;;
15194;SDS011;7698;42.478;23.756;2022-09-27T14:11:43;2.00;;;1.90;;
15194;SDS011;7698;42.478;23.756;2022-09-27T14:14:14;2.10;;;2.00;;
15194;SDS011;7698;42.478;23.756;2022-09-27T14:16:43;2.50;;;2.30;;
15194;SDS011;7698;42.478;23.756;2022-09-27T14:19:12;3.50;;;2.60;;
15194;SDS011;7698;42.478;23.756;2022-09-27T14:21:40;2.60;;;2.40;;
15194;SDS011;7698;42.478;23.756;2022-09-27T14:24:22;2.65;;;2.30;;
15194;SDS011;7698;42.478;23.756;2022-09-27T14:26:50;2.85;;;2.65;;
15194;SDS011;7698;42.478;23.756;2022-09-27T14:29:29;2.53;;;2.42;;
15194;SDS011;7698;42.478;23.756;2022-09-27T14:32:02;2.33;;;2.10;;
15194;SDS011;7698;42.478;23.756;2022-09-27T14:34:29;2.40;;;2.20;;
15194;SDS011;7698;42.478;23.756;2022-09-27T14:36:55;2.67;;;2.47;;
15194;SDS011;7698;42.478;23.756;2022-09-27T14:39:41;2.65;;;2.05;;
15194;SDS011;7698;42.478;23.756;2022-09-27T14:42:16;2.78;;;2.58;;
15194;SDS011;7698;42.478;23.756;2022-09-27T14:44:44;2.92;;;2.70;;
15194;SDS011;7698;42.478;23.756;2022-09-27T14:47:15;2.33;;;2.22;;
15194;SDS011;7698;42.478;23.756;2022-09-27T14:49:45;2.92;;;2.72;;
15194;SDS011;7698;42.478;23.756;2022-09-27T14:52:14;2.90;;;2.70;;
15194;SDS011;7698;42.478;23.756;2022-09-27T14:54:43;2.55;;;2.45;;
15194;SDS011;7698;42.478;23.756;2022-09-27T14:57:12;2.88;;;2.67;;
15194;SDS011;7698;42.478;23.756;2022-09-27T14:59:41;3.10;;;2.80;;
15194;SDS011;7698;42.478;23.756;2022-09-27T15:02:14;2.42;;;2.33;;
15194;SDS011;7698;42.478;23.756;2022-09-27T15:04:45;2.30;;;2.10;;
15194;SDS011;7698;42.478;23.756;2022-09-27T15:07:12;2.70;;;2.17;;
15194;SDS011;7698;42.478;23.756;2022-09-27T15:09:39;3.20;;;3.00;;
15194;SDS011;7698;42.478;23.756;2022-09-27T15:12:08;2.88;;;2.50;;
15194;SDS011;7698;42.478;23.756;2022-09-27T15:14:36;2.50;;;2.30;;
15194;SDS011;7698;42.478;23.756;2022-09-27T15:17:12;2.22;;;2.13;;